Time;durP1;ratioP1;P1;durP2;ratioP2;P2;SDS_P1;SDS_P2;PMS_P1;PMS_P2;Temp;Humidity;BMP_temperature;BMP_pressure;BME280_temperature;BME280_humidity;BME280_pressure;Samples;Min_cycle;Max_cycle;Signal;HPM_P1;HPM_P2
2020/01/09 00:01:40;;;;;;;9.8;6.4;;;;;;;8.07;54.18457;970.877;;;;
2020/01/09 00:04:05;;;;;;;9.7;6.3;;;;;;;8.05;53.68262;970.8297;;;;
2020/01/09 00:06:42;;;;;;;9.4;6.4;;;;;;;8.08;55.80664;970.7958;;;;
2020/01/09 00:09:21;;;;;;;8.7;6.5;;;;;;;8.11;55.93848;970.765;;;;
2020/01/09 00:11:22;;;;;;;9.7;6.4;;;;;;;8.01;53.12891;970.6863;;;;
2020/01/09 00:13:47;;;;;;;8.2;5.9;;;;;;;8;53.07031;970.7054;;;;
2020/01/09 00:18:36;;;;;;;11.6;6.1;;;;;;;7.92;52.62891;970.5606;;;;
2020/01/09 00:21:01;;;;;;;9.4;6;;;;;;;7.85;52.87695;970.5046;;;;
2020/01/09 00:23:26;;;;;;;8.2;5.8;;;;;;;7.79;52.46191;970.4146;;;;
2020/01/09 00:25:51;;;;;;;10.1;5.9;;;;;;;7.72;52.30176;970.3335;;;;
2020/01/09 00:28:16;;;;;;;10.2;6.3;;;;;;;7.77;52.09863;970.2991;;;;
2020/01/09 00:30:41;;;;;;;8.2;5.5;;;;;;;7.73;51.24316;970.3113;;;;
2020/01/09 00:33:07;;;;;;;7.9;5.4;;;;;;;7.72;51.76563;970.3206;;;;
2020/01/09 00:35:32;;;;;;;9.4;5.7;;;;;;;7.72;51.76563;970.2718;;;;
2020/01/09 00:37:57;;;;;;;9.7;5.9;;;;;;;7.75;51.46777;970.2283;;;;
2020/01/09 00:40:22;;;;;;;7.5;5.4;;;;;;;7.71;51.73047;970.2098;;;;
2020/01/09 00:42:47;;;;;;;8.7;5.4;;;;;;;7.71;52.10254;970.1663;;;;
2020/01/09 00:45:12;;;;;;;8.7;5.7;;;;;;;7.77;52.68066;970.1121;;;;
2020/01/09 00:47:37;;;;;;;7.7;5.7;;;;;;;7.8;52.89355;970.0637;;;;
2020/01/09 00:50:02;;;;;;;11.1;5.6;;;;;;;7.83;52.2334;970.06;;;;
2020/01/09 00:52:28;;;;;;;8.1;5.5;;;;;;;7.78;51.90137;970.043;;;;
2020/01/09 00:54:53;;;;;;;7.4;5.2;;;;;;;7.81;52.26563;970.0737;;;;
2020/01/09 00:57:18;;;;;;;7.5;5.1;;;;;;;7.89;52.68359;970.0405;;;;
2020/01/09 00:59:43;;;;;;;9.6;5.4;;;;;;;7.86;52.90137;970.0999;;;;
2020/01/09 01:02:08;;;;;;;7.8;5.3;;;;;;;7.88;53.18262;970.1082;;;;
2020/01/09 01:04:34;;;;;;;8.4;5.3;;;;;;;7.76;53.78516;970.1115;;;;
2020/01/09 01:06:59;;;;;;;8;5.5;;;;;;;7.81;54.4082;970.1263;;;;
2020/01/09 01:09:24;;;;;;;8.9;5.9;;;;;;;7.74;55.79688;970.1676;;;;
2020/01/09 01:11:49;;;;;;;8.6;5.7;;;;;;;7.62;58.66797;970.1606;;;;
2020/01/09 01:14:14;;;;;;;9.7;5.6;;;;;;;7.54;58.64551;970.1696;;;;
2020/01/09 01:16:39;;;;;;;9.4;5.8;;;;;;;7.49;59.9209;970.1527;;;;
2020/01/09 01:19:04;;;;;;;9.7;5.9;;;;;;;7.4;59.9873;970.1309;;;;
2020/01/09 01:21:29;;;;;;;9.3;6.1;;;;;;;7.37;59.60059;970.1075;;;;
2020/01/09 01:23:55;;;;;;;9.2;5.9;;;;;;;7.36;60.4707;970.0817;;;;
2020/01/09 01:26:20;;;;;;;9.7;6.2;;;;;;;7.28;60.5293;970.0615;;;;
2020/01/09 01:28:45;;;;;;;8.5;6;;;;;;;7.23;60.97559;970.0861;;;;
2020/01/09 01:31:10;;;;;;;12.9;7.7;;;;;;;7.2;61.19336;970.1333;;;;
2020/01/09 01:33:35;;;;;;;9.7;6.4;;;;;;;7.2;61.29785;970.0438;;;;
2020/01/09 01:36:00;;;;;;;8.7;6.4;;;;;;;6.97;59.70801;970.0278;;;;
2020/01/09 01:38:25;;;;;;;9.2;6.3;;;;;;;7;58.93359;970.0119;;;;
2020/01/09 01:40:50;;;;;;;8.1;5.8;;;;;;;7.04;58.7627;970.0331;;;;
2020/01/09 01:43:15;;;;;;;9.4;6.3;;;;;;;7.01;58.67871;970.0302;;;;
2020/01/09 01:45:41;;;;;;;13;8;;;;;;;7.12;58.99609;969.9644;;;;
2020/01/09 01:48:06;;;;;;;13.7;8.8;;;;;;;7.14;59.5;969.9398;;;;
2020/01/09 01:50:31;;;;;;;14;9.5;;;;;;;7.05;60.14844;969.9664;;;;
2020/01/09 01:52:56;;;;;;;18.1;10.5;;;;;;;6.93;61.39844;969.9503;;;;
2020/01/09 01:55:21;;;;;;;16.3;10.6;;;;;;;6.79;62.49316;969.9291;;;;
2020/01/09 01:57:46;;;;;;;15;9.3;;;;;;;6.77;62.39941;969.8689;;;;
2020/01/09 02:00:57;;;;;;;9.9;6.6;;;;;;;6.73;62.60156;969.7817;;;;
2020/01/09 02:03:22;;;;;;;10.7;6.8;;;;;;;6.64;62.48438;969.7966;;;;
2020/01/09 02:05:47;;;;;;;10.5;6.5;;;;;;;6.63;62.2041;969.7986;;;;
2020/01/09 02:08:12;;;;;;;12;7.4;;;;;;;6.59;62.97656;969.8292;;;;
2020/01/09 02:10:38;;;;;;;11.3;7.5;;;;;;;6.64;63.31934;969.8275;;;;
2020/01/09 02:13:03;;;;;;;10.5;7.1;;;;;;;6.58;63.82227;969.8741;;;;
2020/01/09 02:15:28;;;;;;;11.5;7.7;;;;;;;6.49;64.5625;969.8914;;;;
2020/01/09 02:17:53;;;;;;;15;8.7;;;;;;;6.45;65.05664;969.8567;;;;
2020/01/09 02:20:18;;;;;;;12.5;7.7;;;;;;;6.43;65.63477;969.8377;;;;
2020/01/09 02:22:43;;;;;;;12.9;8;;;;;;;6.38;66.19531;969.8283;;;;
2020/01/09 02:25:08;;;;;;;11.1;6.7;;;;;;;6.31;66.625;969.8577;;;;
2020/01/09 02:27:33;;;;;;;10.4;5.9;;;;;;;6.44;66.72559;969.8295;;;;
2020/01/09 02:29:58;;;;;;;10;5.3;;;;;;;6.33;67.49805;969.8022;;;;
2020/01/09 02:32:23;;;;;;;7.5;5.3;;;;;;;6.25;67.53223;969.8165;;;;
2020/01/09 02:34:49;;;;;;;8.9;5.1;;;;;;;6.09;68.59766;969.7181;;;;
2020/01/09 02:37:14;;;;;;;9.3;5.1;;;;;;;6.21;68.66406;969.6756;;;;
2020/01/09 02:39:39;;;;;;;8;5;;;;;;;6.25;68.58789;969.6735;;;;
2020/01/09 02:42:04;;;;;;;10.5;5.2;;;;;;;6.28;68.87109;969.665;;;;
2020/01/09 02:44:29;;;;;;;10.2;5.7;;;;;;;6.29;68.09668;969.6266;;;;
2020/01/09 02:46:54;;;;;;;9.3;5.2;;;;;;;6.23;68.35352;969.659;;;;
2020/01/09 02:49:19;;;;;;;8.8;5.3;;;;;;;6.28;67.89746;969.6002;;;;
2020/01/09 02:51:44;;;;;;;8.1;5;;;;;;;6.27;67.91797;969.5101;;;;
2020/01/09 02:54:09;;;;;;;9.5;5.2;;;;;;;6.29;67.21484;969.5142;;;;
2020/01/09 02:56:34;;;;;;;7.9;5.2;;;;;;;6.23;67.00781;969.4792;;;;
2020/01/09 02:59:00;;;;;;;10.9;5.3;;;;;;;6.29;66.66895;969.4755;;;;
2020/01/09 03:01:25;;;;;;;9.2;5;;;;;;;6.18;67.30078;969.4458;;;;
2020/01/09 03:03:50;;;;;;;11.2;5.4;;;;;;;6.2;67.89648;969.4319;;;;
2020/01/09 03:06:15;;;;;;;12.9;5.4;;;;;;;6.24;68.12305;969.4062;;;;
2020/01/09 03:08:40;;;;;;;11.1;5.4;;;;;;;6.24;68.30859;969.3716;;;;
2020/01/09 03:11:05;;;;;;;8.3;5.6;;;;;;;6.12;68.01172;969.3494;;;;
2020/01/09 03:13:30;;;;;;;8;4.9;;;;;;;6.15;67.08789;969.3359;;;;
2020/01/09 03:15:55;;;;;;;11.9;5.4;;;;;;;6.14;66.96875;969.3214;;;;
2020/01/09 03:18:20;;;;;;;10.9;5.9;;;;;;;6.1;66.40723;969.285;;;;
2020/01/09 03:20:45;;;;;;;11;6.5;;;;;;;6.1;66.12891;969.2654;;;;
2020/01/09 03:23:10;;;;;;;10.5;6.5;;;;;;;6.09;66.0459;969.215;;;;
2020/01/09 03:25:35;;;;;;;8.5;5.9;;;;;;;6.17;66.37012;969.1967;;;;
2020/01/09 03:28:01;;;;;;;8.9;5.7;;;;;;;6.07;66.46094;969.1116;;;;
2020/01/09 03:30:26;;;;;;;8;5.6;;;;;;;6.13;66.19043;969.132;;;;
2020/01/09 03:32:51;;;;;;;6.9;4.8;;;;;;;6.14;66.03125;969.1306;;;;
2020/01/09 03:35:16;;;;;;;7.1;4.8;;;;;;;6.02;66.83496;969.1326;;;;
2020/01/09 03:37:41;;;;;;;8.2;5.1;;;;;;;6.02;67.06543;969.0844;;;;
2020/01/09 03:42:31;;;;;;;6.6;4.5;;;;;;;5.91;67.01563;969.0675;;;;
2020/01/09 03:44:56;;;;;;;9.5;4.5;;;;;;;5.88;66.89453;969.0178;;;;
2020/01/09 03:47:21;;;;;;;7.9;4.7;;;;;;;5.8;67.18359;968.9922;;;;
2020/01/09 03:49:47;;;;;;;6.9;4;;;;;;;5.8;66.83398;968.9697;;;;
2020/01/09 03:52:12;;;;;;;5.9;4.4;;;;;;;5.79;67.14746;968.9641;;;;
2020/01/09 03:54:37;;;;;;;8.7;4.5;;;;;;;5.87;67.10156;969.0117;;;;
2020/01/09 03:57:02;;;;;;;6.4;4.3;;;;;;;5.8;66.88184;968.9858;;;;
2020/01/09 03:59:27;;;;;;;6.7;4.4;;;;;;;5.79;67.14746;968.9609;;;;
2020/01/09 04:02:26;;;;;;;6.9;4.4;;;;;;;5.82;66.78027;968.9758;;;;
2020/01/09 04:04:51;;;;;;;7.1;4.5;;;;;;;5.8;66.86914;968.9204;;;;
2020/01/09 04:07:16;;;;;;;6.9;4.3;;;;;;;5.82;67.13965;968.8945;;;;
2020/01/09 04:10:35;;;;;;;8.7;4.6;;;;;;;5.89;66.11914;968.8367;;;;
2020/01/09 04:13:00;;;;;;;7.4;4.6;;;;;;;5.83;66.3418;968.778;;;;
2020/01/09 04:15:25;;;;;;;7.5;4.8;;;;;;;5.77;66.98047;968.736;;;;
2020/01/09 04:17:50;;;;;;;8.4;4.5;;;;;;;5.81;65.99219;968.7004;;;;
2020/01/09 04:20:15;;;;;;;6.8;4.5;;;;;;;5.85;66.09082;968.6231;;;;
2020/01/09 04:22:40;;;;;;;7.1;4.5;;;;;;;5.67;67.02344;968.6579;;;;
2020/01/09 04:25:05;;;;;;;10.1;4.6;;;;;;;5.55;67.39844;968.5916;;;;
2020/01/09 04:27:30;;;;;;;6.9;4.6;;;;;;;5.61;67.4873;968.6297;;;;
2020/01/09 04:29:56;;;;;;;7;4.6;;;;;;;5.62;67.22363;968.564;;;;
2020/01/09 04:32:21;;;;;;;7.6;4.1;;;;;;;5.69;66.13574;968.6241;;;;
2020/01/09 04:34:46;;;;;;;6.3;4.4;;;;;;;5.71;66.86816;968.6039;;;;
2020/01/09 04:37:11;;;;;;;5.8;4.4;;;;;;;5.71;66.61328;968.5765;;;;
2020/01/09 04:39:36;;;;;;;6.1;4.1;;;;;;;5.72;66.45215;968.5728;;;;
2020/01/09 04:42:01;;;;;;;6.2;4.2;;;;;;;5.53;67.24512;968.5728;;;;
2020/01/09 04:44:27;;;;;;;7;4.4;;;;;;;5.54;67.48926;968.6202;;;;
2020/01/09 04:46:52;;;;;;;7.4;4.4;;;;;;;5.49;67.59863;968.5661;;;;
2020/01/09 04:49:17;;;;;;;6.6;4.5;;;;;;;5.45;67.65918;968.5798;;;;
2020/01/09 04:51:42;;;;;;;8.6;4.5;;;;;;;5.5;67.35547;968.5627;;;;
2020/01/09 04:54:07;;;;;;;6.1;4.2;;;;;;;5.4;67.95508;968.575;;;;
2020/01/09 04:56:32;;;;;;;6.7;4.2;;;;;;;5.4;67.9668;968.562;;;;
2020/01/09 04:58:57;;;;;;;7;4.4;;;;;;;5.35;68.29395;968.6035;;;;
2020/01/09 05:01:22;;;;;;;6.8;4.3;;;;;;;5.34;68.38379;968.5692;;;;
2020/01/09 05:03:47;;;;;;;6.4;4.5;;;;;;;5.38;68.15918;968.4952;;;;
2020/01/09 05:06:12;;;;;;;5.9;4.4;;;;;;;5.35;68.22461;968.5253;;;;
2020/01/09 05:08:37;;;;;;;6.4;4.4;;;;;;;5.25;68.35938;968.514;;;;
2020/01/09 05:11:02;;;;;;;6.7;4.3;;;;;;;5.23;68.36719;968.4828;;;;
2020/01/09 05:13:28;;;;;;;8.3;4.6;;;;;;;5.32;67.89453;968.5184;;;;
2020/01/09 05:15:53;;;;;;;6.3;4.4;;;;;;;5.29;67.6123;968.4637;;;;
2020/01/09 05:18:18;;;;;;;8;5.3;;;;;;;5.22;67.64746;968.4169;;;;
2020/01/09 05:20:43;;;;;;;6.8;4.9;;;;;;;5.1;68.24316;968.4437;;;;
2020/01/09 05:23:08;;;;;;;7.5;4.7;;;;;;;5.05;68.38477;968.3627;;;;
2020/01/09 05:25:33;;;;;;;7.7;4.8;;;;;;;5.04;68.33594;968.3549;;;;
2020/01/09 05:27:58;;;;;;;9.2;6.5;;;;;;;5.09;67.87012;968.3428;;;;
2020/01/09 05:30:23;;;;;;;7.2;5.1;;;;;;;5.03;67.37402;968.2706;;;;
2020/01/09 05:32:48;;;;;;;9.2;5.7;;;;;;;5.12;67.3418;968.2755;;;;
2020/01/09 05:35:13;;;;;;;7.3;5.2;;;;;;;5.12;66.9502;968.2367;;;;
2020/01/09 05:37:39;;;;;;;9.7;5.7;;;;;;;5.18;67.32813;968.2264;;;;
2020/01/09 05:40:04;;;;;;;10.4;6;;;;;;;5.19;67.2832;968.2222;;;;
2020/01/09 05:42:29;;;;;;;8.7;5.2;;;;;;;5.12;67.56348;968.2569;;;;
2020/01/09 05:44:54;;;;;;;8.6;5.5;;;;;;;5.14;67.35742;968.2109;;;;
2020/01/09 05:47:19;;;;;;;7.2;5.4;;;;;;;5.03;67.6416;968.2195;;;;
2020/01/09 05:49:44;;;;;;;7.4;5.2;;;;;;;4.98;67.71484;968.1699;;;;
2020/01/09 05:52:09;;;;;;;7.9;5.2;;;;;;;5.09;67.57031;968.166;;;;
2020/01/09 05:54:34;;;;;;;9.6;5.4;;;;;;;5.02;67.75586;968.1694;;;;
2020/01/09 05:56:59;;;;;;;6.9;4.4;;;;;;;5;67.10352;968.0909;;;;
2020/01/09 05:59:24;;;;;;;6.4;4.4;;;;;;;5.19;66.64844;968.1326;;;;
2020/01/09 06:01:49;;;;;;;7.6;4.8;;;;;;;5.12;67.39941;968.1345;;;;
2020/01/09 06:04:14;;;;;;;8.6;5;;;;;;;5.14;67.24219;968.1003;;;;
2020/01/09 06:06:40;;;;;;;8.3;4.9;;;;;;;5.06;67.57617;968.1049;;;;
2020/01/09 06:09:05;;;;;;;8.8;4.6;;;;;;;5.02;67.19922;968.1122;;;;
2020/01/09 06:11:30;;;;;;;5.6;4.3;;;;;;;5.16;66.37695;968.1023;;;;
2020/01/09 06:13:56;;;;;;;6.2;4.2;;;;;;;5.21;65.9668;968.1055;;;;
2020/01/09 06:16:21;;;;;;;7.9;4.2;;;;;;;5.28;64.11523;968.0858;;;;
2020/01/09 06:18:46;;;;;;;5.9;4.1;;;;;;;5.35;62.63184;968.092;;;;
2020/01/09 06:21:11;;;;;;;7.3;4.4;;;;;;;5.44;62.71387;968.0822;;;;
2020/01/09 06:23:36;;;;;;;5.9;3.9;;;;;;;5.41;62.6875;968.0689;;;;
2020/01/09 06:26:06;;;;;;;8.5;3.8;;;;;;;5.42;60.2207;968.063;;;;
2020/01/09 06:28:31;;;;;;;7.2;4.2;;;;;;;5.42;61.08887;968.0056;;;;
2020/01/09 06:30:56;;;;;;;6.4;4;;;;;;;5.42;58.99316;967.9662;;;;
2020/01/09 06:33:21;;;;;;;6.9;3.8;;;;;;;5.52;57.68652;967.9031;;;;
2020/01/09 06:35:46;;;;;;;5.6;3.5;;;;;;;5.5;57.31348;967.8599;;;;
2020/01/09 06:38:11;;;;;;;5.7;3.6;;;;;;;5.52;58.03418;967.8864;;;;
2020/01/09 06:40:36;;;;;;;5.9;3.8;;;;;;;5.64;57.49512;967.8278;;;;
2020/01/09 06:43:02;;;;;;;8.1;3.8;;;;;;;5.64;56.96191;967.8284;;;;
2020/01/09 06:45:27;;;;;;;5.9;3.8;;;;;;;5.72;57.17969;967.7787;;;;
2020/01/09 06:47:52;;;;;;;7.7;3.5;;;;;;;5.74;56.03613;967.7781;;;;
2020/01/09 06:50:17;;;;;;;5.7;3.5;;;;;;;5.79;55.74121;967.7324;;;;
2020/01/09 06:52:42;;;;;;;5.9;3.6;;;;;;;5.88;55.8457;967.7583;;;;
2020/01/09 06:55:07;;;;;;;8;4.1;;;;;;;5.88;55.7998;967.759;;;;
2020/01/09 06:57:32;;;;;;;7.3;3.9;;;;;;;5.92;55.75781;967.723;;;;
2020/01/09 06:59:57;;;;;;;8.1;3.7;;;;;;;5.88;55.17383;967.7195;;;;
2020/01/09 07:02:22;;;;;;;10.4;4.1;;;;;;;5.86;55.29883;967.725;;;;
2020/01/09 07:04:47;;;;;;;6.8;4;;;;;;;5.9;55.37305;967.6848;;;;
2020/01/09 07:07:13;;;;;;;5.2;3.3;;;;;;;5.87;54.31445;967.6898;;;;
2020/01/09 07:09:38;;;;;;;6.4;3.5;;;;;;;5.92;54.45898;967.6704;;;;
2020/01/09 07:12:03;;;;;;;6.8;3.3;;;;;;;5.98;54.37402;967.6985;;;;
2020/01/09 07:14:28;;;;;;;6.3;3.1;;;;;;;6.12;54.58887;967.692;;;;
2020/01/09 07:16:53;;;;;;;4.6;3.3;;;;;;;6.18;54.0752;967.6623;;;;
2020/01/09 07:19:18;;;;;;;20.1;4.8;;;;;;;6.25;56.18457;967.6409;;;;
2020/01/09 07:21:43;;;;;;;11.7;4.3;;;;;;;6.35;55.96484;967.5986;;;;
2020/01/09 07:24:08;;;;;;;6.6;3.5;;;;;;;6.33;53.80371;967.5195;;;;
2020/01/09 07:26:33;;;;;;;7.3;3.3;;;;;;;6.27;54.58496;967.512;;;;
2020/01/09 07:28:58;;;;;;;7;4;;;;;;;6.34;56.18555;967.5305;;;;
2020/01/09 07:31:23;;;;;;;18;4.8;;;;;;;6.56;57.31641;967.5181;;;;
2020/01/09 07:33:48;;;;;;;6.5;3.6;;;;;;;6.66;54.85547;967.4934;;;;
2020/01/09 07:36:13;;;;;;;5.8;3.3;;;;;;;7.14;54.61621;967.4745;;;;
2020/01/09 07:38:38;;;;;;;5.7;3.3;;;;;;;7.03;53.16016;967.4423;;;;
2020/01/09 07:41:04;;;;;;;6;3.5;;;;;;;6.98;53.65332;967.4592;;;;
2020/01/09 07:43:29;;;;;;;7.8;3.6;;;;;;;6.93;53.05371;967.4356;;;;
2020/01/09 07:45:54;;;;;;;5.5;3.3;;;;;;;6.97;53.79102;967.4768;;;;
2020/01/09 07:48:19;;;;;;;8.5;3.7;;;;;;;7;52.4707;967.4056;;;;
2020/01/09 07:50:44;;;;;;;6.5;3.9;;;;;;;7.61;51.03125;967.3909;;;;
2020/01/09 07:53:09;;;;;;;5.8;3.7;;;;;;;7.86;50.37402;967.4017;;;;
2020/01/09 07:55:34;;;;;;;8.4;3.8;;;;;;;8.6;48.95508;967.4142;;;;
2020/01/09 07:57:59;;;;;;;8.2;3.9;;;;;;;9;47.16699;967.3928;;;;
2020/01/09 08:01:36;;;;;;;8;4;;;;;;;10.26;43.74512;967.3951;;;;
2020/01/09 08:04:01;;;;;;;6.2;3.8;;;;;;;11.13;42.04883;967.3137;;;;
2020/01/09 08:06:26;;;;;;;6.4;3.5;;;;;;;10.77;41.66211;967.284;;;;
2020/01/09 08:08:51;;;;;;;5.9;3.5;;;;;;;10.34;42.87402;967.3264;;;;
2020/01/09 08:11:16;;;;;;;5;3.1;;;;;;;9.49;43.99414;967.2576;;;;
2020/01/09 08:13:41;;;;;;;6.7;3;;;;;;;9.16;45.24609;967.2858;;;;
2020/01/09 08:16:06;;;;;;;5.8;3;;;;;;;8.91;45.80273;967.2654;;;;
2020/01/09 08:18:31;;;;;;;4.2;2.7;;;;;;;8.72;45.99316;967.2352;;;;
2020/01/09 08:20:57;;;;;;;6.4;2.9;;;;;;;8.55;47.02441;967.1929;;;;
2020/01/09 08:23:22;;;;;;;6;2.6;;;;;;;8.5;46.72754;967.1577;;;;
2020/01/09 08:25:47;;;;;;;5.3;2.8;;;;;;;8.84;46.2168;967.1428;;;;
2020/01/09 08:28:12;;;;;;;5;2.6;;;;;;;9.02;45.42871;967.1387;;;;
2020/01/09 08:30:37;;;;;;;4.2;2.7;;;;;;;9.99;44.06836;967.1323;;;;
2020/01/09 08:33:02;;;;;;;6.2;2.6;;;;;;;11.3;41.03223;967.041;;;;
2020/01/09 08:35:27;;;;;;;5.9;2.6;;;;;;;11.73;39.2627;966.9621;;;;
2020/01/09 08:37:52;;;;;;;5;2.5;;;;;;;12.13;38.2168;966.9114;;;;
2020/01/09 08:40:17;;;;;;;4.7;2.5;;;;;;;13.14;36.25488;966.9064;;;;
2020/01/09 08:42:42;;;;;;;4.9;2.5;;;;;;;14.34;34.1084;966.8875;;;;
2020/01/09 08:45:07;;;;;;;6.3;2.4;;;;;;;15.19;32.41016;966.8431;;;;
2020/01/09 08:47:32;;;;;;;4.7;2.5;;;;;;;15.55;31.57129;966.8329;;;;
2020/01/09 08:49:57;;;;;;;4.2;2.6;;;;;;;15.29;31.19629;966.7784;;;;
2020/01/09 08:52:22;;;;;;;3.4;2.3;;;;;;;14.21;33.09375;966.7629;;;;
2020/01/09 08:54:48;;;;;;;4.9;2;;;;;;;13.12;35.39258;966.7786;;;;
2020/01/09 08:57:13;;;;;;;4.6;2.2;;;;;;;12.31;36.79883;966.7238;;;;
2020/01/09 08:59:38;;;;;;;4;2.2;;;;;;;11.51;38.33887;966.6694;;;;
2020/01/09 09:02:03;;;;;;;5;2.1;;;;;;;11.12;39.06641;966.6539;;;;
2020/01/09 09:04:28;;;;;;;6.5;2.2;;;;;;;10.69;40.23633;966.628;;;;
2020/01/09 09:06:53;;;;;;;3.2;2;;;;;;;10.53;40.7832;966.6364;;;;
2020/01/09 09:09:18;;;;;;;6.8;2.4;;;;;;;10.54;41.06543;966.6362;;;;
2020/01/09 09:11:43;;;;;;;5.4;2.6;;;;;;;10.7;40.77539;966.5845;;;;
2020/01/09 09:14:08;;;;;;;5.1;2.6;;;;;;;10.56;40.75098;966.5471;;;;
2020/01/09 09:16:33;;;;;;;4.6;2.7;;;;;;;10.46;41.38574;966.573;;;;
2020/01/09 09:18:58;;;;;;;7.1;2.7;;;;;;;10.37;40.97949;966.5926;;;;
2020/01/09 09:21:23;;;;;;;5.3;2.5;;;;;;;10.52;40.8877;966.5757;;;;
2020/01/09 09:23:49;;;;;;;6.3;2.4;;;;;;;10.55;40.33984;966.5959;;;;
2020/01/09 09:26:14;;;;;;;6.8;2.5;;;;;;;10.54;40.78418;966.5939;;;;
2020/01/09 09:28:39;;;;;;;4.3;2.5;;;;;;;10.4;40.45508;966.5826;;;;
2020/01/09 09:31:04;;;;;;;6.3;2.4;;;;;;;10.61;40.9209;966.5313;;;;
2020/01/09 09:33:29;;;;;;;9;2.4;;;;;;;10.54;40.33887;966.4777;;;;
2020/01/09 09:35:54;;;;;;;6.3;2.3;;;;;;;10.48;40.94336;966.5089;;;;
2020/01/09 09:38:19;;;;;;;7.1;2.4;;;;;;;10.36;40.88477;966.4925;;;;
2020/01/09 09:40:44;;;;;;;7.2;2.4;;;;;;;10.28;40.52539;966.5022;;;;
2020/01/09 09:43:09;;;;;;;5.5;2.4;;;;;;;10.32;40.1543;966.4494;;;;
2020/01/09 09:45:34;;;;;;;6.4;2.4;;;;;;;10.59;40.54297;966.438;;;;
2020/01/09 09:48:00;;;;;;;4.4;2.2;;;;;;;10.73;39.96973;966.3903;;;;
2020/01/09 09:50:25;;;;;;;6.1;2.3;;;;;;;11.04;39.7168;966.3511;;;;
2020/01/09 09:52:59;;;;;;;6.1;2.3;;;;;;;11.23;38.88965;966.2949;;;;
2020/01/09 09:55:15;;;;;;;5.9;2.1;;;;;;;11.38;37.56445;966.2667;;;;
2020/01/09 09:57:40;;;;;;;7;2.4;;;;;;;11.71;38.19238;966.2545;;;;
2020/01/09 10:00:05;;;;;;;4.7;2.3;;;;;;;11.76;37.32715;966.2344;;;;
2020/01/09 10:02:30;;;;;;;5.8;2.1;;;;;;;11.92;36.43457;966.1328;;;;
2020/01/09 10:04:55;;;;;;;5.9;1.8;;;;;;;11.89;34.72754;966.0631;;;;
2020/01/09 10:07:21;;;;;;;4.1;1.9;;;;;;;11.97;35.85156;966.0578;;;;
2020/01/09 10:09:46;;;;;;;6.8;1.8;;;;;;;11.9;34.7168;966.029;;;;
2020/01/09 10:12:11;;;;;;;7.1;1.9;;;;;;;12.06;35.97656;966.0101;;;;
2020/01/09 10:14:36;;;;;;;5.6;1.8;;;;;;;12.15;35.7832;965.9953;;;;
2020/01/09 10:17:01;;;;;;;6.1;2;;;;;;;12.3;35.89063;965.9326;;;;
2020/01/09 10:19:26;;;;;;;4.4;2;;;;;;;12.27;35.27637;965.9171;;;;
2020/01/09 10:21:51;;;;;;;7.3;1.9;;;;;;;12.17;35.85645;965.9185;;;;
2020/01/09 10:24:16;;;;;;;4.4;2;;;;;;;12.22;35.67188;965.8721;;;;
2020/01/09 10:26:41;;;;;;;4.1;1.8;;;;;;;12.31;36.04492;965.8077;;;;
2020/01/09 10:29:06;;;;;;;7;1.9;;;;;;;12.4;36.0752;965.8375;;;;
2020/01/09 10:31:32;;;;;;;5.3;2;;;;;;;12.28;35.53516;965.7922;;;;
2020/01/09 10:33:57;;;;;;;6.7;1.9;;;;;;;12.32;36.65723;965.7626;;;;
2020/01/09 10:36:22;;;;;;;5.2;1.8;;;;;;;12.43;36.39551;965.7639;;;;
2020/01/09 10:38:47;;;;;;;25;2.7;;;;;;;12.47;36.56348;965.688;;;;
2020/01/09 10:41:12;;;;;;;5.8;2.1;;;;;;;12.38;36.01465;965.6533;;;;
2020/01/09 10:43:37;;;;;;;2.5;1.6;;;;;;;12.46;36.92773;965.572;;;;
2020/01/09 10:46:02;;;;;;;4.7;2;;;;;;;12.57;37.16113;965.5577;;;;
2020/01/09 10:48:27;;;;;;;5;1.8;;;;;;;12.55;36.05273;965.541;;;;
2020/01/09 10:50:52;;;;;;;6.3;2;;;;;;;12.6;36.99902;965.5014;;;;
2020/01/09 10:53:17;;;;;;;27.2;2.6;;;;;;;12.66;37.12207;965.4752;;;;
2020/01/09 10:55:42;;;;;;;5;1.9;;;;;;;12.5;36.13086;965.4289;;;;
2020/01/09 10:58:08;;;;;;;3.9;1.8;;;;;;;12.46;35.93945;965.4202;;;;
2020/01/09 11:00:33;;;;;;;3.6;1.7;;;;;;;12.57;36.38379;965.3808;;;;
2020/01/09 11:02:58;;;;;;;3.9;1.7;;;;;;;12.64;36.35449;965.338;;;;
2020/01/09 11:05:23;;;;;;;11.4;1.8;;;;;;;12.71;36.18359;965.2709;;;;
2020/01/09 11:07:49;;;;;;;13.6;2.1;;;;;;;12.8;36.25;965.2263;;;;
2020/01/09 11:10:14;;;;;;;5.5;1.7;;;;;;;12.75;34.76172;965.1613;;;;
2020/01/09 11:12:39;;;;;;;7.2;1.8;;;;;;;12.8;35.7666;965.1456;;;;
2020/01/09 11:15:04;;;;;;;5.1;1.7;;;;;;;12.76;34.75098;965.2106;;;;
2020/01/09 11:17:29;;;;;;;5.3;1.7;;;;;;;12.71;34.93457;965.1021;;;;
2020/01/09 11:19:54;;;;;;;3.4;1.5;;;;;;;12.85;35.45215;965.0579;;;;
2020/01/09 11:22:19;;;;;;;8.1;1.5;;;;;;;12.83;36.04004;964.9925;;;;
2020/01/09 11:24:45;;;;;;;6;1.6;;;;;;;12.76;35.75195;964.9347;;;;
2020/01/09 11:27:10;;;;;;;3;1.5;;;;;;;12.72;35.14844;964.8791;;;;
2020/01/09 11:29:35;;;;;;;3.6;1.3;;;;;;;12.67;35.46191;964.8834;;;;
2020/01/09 11:32:00;;;;;;;7.2;1.5;;;;;;;12.71;36.16016;964.8195;;;;
2020/01/09 11:34:25;;;;;;;3.9;1.5;;;;;;;12.7;36.3125;964.8234;;;;
2020/01/09 11:36:50;;;;;;;4.5;1.4;;;;;;;12.79;36.17773;964.7556;;;;
2020/01/09 11:39:15;;;;;;;5.5;1.5;;;;;;;12.82;36.33398;964.6956;;;;
2020/01/09 11:41:41;;;;;;;10.2;1.7;;;;;;;12.87;36.97461;964.6401;;;;
2020/01/09 11:44:06;;;;;;;3.7;1.5;;;;;;;12.9;36.44727;964.5859;;;;
2020/01/09 11:46:31;;;;;;;5.7;1.5;;;;;;;12.96;36.98242;964.5613;;;;
2020/01/09 11:48:56;;;;;;;4.9;1.4;;;;;;;13;37.32813;964.5279;;;;
2020/01/09 11:51:22;;;;;;;6.3;1.5;;;;;;;13;37.45801;964.4708;;;;
2020/01/09 11:53:47;;;;;;;3.4;1.7;;;;;;;13.1;37.64258;964.4658;;;;
2020/01/09 11:56:12;;;;;;;3.5;1.4;;;;;;;13.17;37.625;964.4949;;;;
2020/01/09 11:58:37;;;;;;;6.4;1.7;;;;;;;13.4;37.33789;964.4377;;;;
2020/01/09 12:01:03;;;;;;;5.7;1.5;;;;;;;13.76;37.53418;964.4225;;;;
2020/01/09 12:03:27;;;;;;;3.7;1.5;;;;;;;14.03;37.25;964.3954;;;;
2020/01/09 12:05:53;;;;;;;4.1;1.4;;;;;;;14.34;37.00488;964.3298;;;;
2020/01/09 12:08:18;;;;;;;6.6;1.5;;;;;;;14.61;36.61426;964.2886;;;;
2020/01/09 12:10:43;;;;;;;15.6;2;;;;;;;14.84;37.03516;964.2533;;;;
2020/01/09 12:13:08;;;;;;;6.4;1.6;;;;;;;15.14;36.66992;964.2361;;;;
2020/01/09 12:15:33;;;;;;;4.7;1.6;;;;;;;15.29;36.5293;964.1777;;;;
2020/01/09 12:17:59;;;;;;;4.6;1.4;;;;;;;15.33;36.8877;964.1613;;;;
2020/01/09 12:20:24;;;;;;;5.6;1.4;;;;;;;15.42;36.82422;964.0988;;;;
2020/01/09 12:22:49;;;;;;;3.7;1.3;;;;;;;15.41;36.7041;964.1122;;;;
2020/01/09 12:25:14;;;;;;;5.8;1.5;;;;;;;15.42;36.50488;964.123;;;;
2020/01/09 12:27:39;;;;;;;5.1;1.3;;;;;;;15.51;36.0498;964.1014;;;;
2020/01/09 12:30:04;;;;;;;4.9;1.2;;;;;;;15.43;36.23242;964.0094;;;;
2020/01/09 12:32:29;;;;;;;5.7;1.2;;;;;;;15.45;36.49512;964.0167;;;;
2020/01/09 12:34:55;;;;;;;3.5;1.1;;;;;;;15.6;36.45898;964.0175;;;;
2020/01/09 12:37:20;;;;;;;2.5;0.9;;;;;;;15.63;36.66406;963.9666;;;;
2020/01/09 12:39:45;;;;;;;5.1;1.1;;;;;;;15.51;37.17578;963.938;;;;
2020/01/09 12:42:10;;;;;;;4;1.1;;;;;;;15.42;37.25;963.9128;;;;
2020/01/09 12:44:35;;;;;;;3.4;1.2;;;;;;;15.56;37.2627;963.928;;;;
2020/01/09 12:47:01;;;;;;;6.7;1.1;;;;;;;15.67;37.24805;963.871;;;;
2020/01/09 12:49:26;;;;;;;6.1;1.1;;;;;;;15.79;37.41211;963.8753;;;;
2020/01/09 12:51:51;;;;;;;2.7;1.1;;;;;;;15.69;37.9375;963.8337;;;;
2020/01/09 12:54:16;;;;;;;2.4;0.9;;;;;;;15.56;38.1875;963.8672;;;;
2020/01/09 12:56:41;;;;;;;2.4;1;;;;;;;15.39;38.38574;963.8577;;;;
2020/01/09 12:59:07;;;;;;;1.2;0.8;;;;;;;15.39;38.62402;963.7844;;;;
2020/01/09 13:01:32;;;;;;;4;0.8;;;;;;;15.51;38.89355;963.7803;;;;
2020/01/09 13:03:57;;;;;;;10.7;1.1;;;;;;;15.6;38.28516;963.7888;;;;
2020/01/09 13:06:22;;;;;;;3.6;1;;;;;;;15.59;38.20215;963.7639;;;;
2020/01/09 13:08:47;;;;;;;2.8;1;;;;;;;15.63;38.28809;963.7636;;;;
2020/01/09 13:11:12;;;;;;;2.3;0.9;;;;;;;15.7;38.35449;963.785;;;;
2020/01/09 13:13:38;;;;;;;4;1.2;;;;;;;15.67;37.86523;963.666;;;;
2020/01/09 13:16:03;;;;;;;2.4;1;;;;;;;15.62;37.83691;963.6326;;;;
2020/01/09 13:18:28;;;;;;;2.4;1;;;;;;;15.78;37.53027;963.6155;;;;
2020/01/09 13:20:53;;;;;;;2.2;1.2;;;;;;;15.83;37.64258;963.5684;;;;
2020/01/09 13:23:18;;;;;;;6;1.3;;;;;;;15.92;37.10449;963.5201;;;;
2020/01/09 13:25:43;;;;;;;2.7;1.1;;;;;;;15.88;36.86328;963.475;;;;
2020/01/09 13:28:09;;;;;;;4.9;1.1;;;;;;;15.92;36.86621;963.4565;;;;
2020/01/09 13:30:34;;;;;;;4.2;1;;;;;;;15.75;37.14746;963.5066;;;;
2020/01/09 13:32:59;;;;;;;8.8;1.2;;;;;;;15.59;38.03613;963.4914;;;;
2020/01/09 13:35:24;;;;;;;3.3;1.1;;;;;;;15.31;38.25977;963.4942;;;;
2020/01/09 13:37:49;;;;;;;9.1;1.4;;;;;;;15.15;38.64941;963.4827;;;;
2020/01/09 13:40:14;;;;;;;1.7;1.2;;;;;;;15;39.39355;963.4766;;;;
2020/01/09 13:42:40;;;;;;;4.6;1.2;;;;;;;14.89;39.5498;963.5014;;;;
2020/01/09 13:45:05;;;;;;;6.2;1.2;;;;;;;14.84;39.5918;963.4695;;;;
2020/01/09 13:47:30;;;;;;;4;1;;;;;;;14.92;39.93066;963.4878;;;;
2020/01/09 13:49:55;;;;;;;3.4;1.1;;;;;;;15.04;39.46875;963.4647;;;;
2020/01/09 13:52:20;;;;;;;6;1.3;;;;;;;15.16;39.09961;963.4934;;;;
2020/01/09 13:54:45;;;;;;;4.1;1.4;;;;;;;15.23;39.24902;963.4999;;;;
2020/01/09 13:57:10;;;;;;;3.1;1.2;;;;;;;15.13;39.25098;963.4927;;;;
2020/01/09 13:59:35;;;;;;;5.5;1.2;;;;;;;15.23;39.21289;963.4783;;;;
2020/01/09 14:04:15;;;;;;;4.8;1.4;;;;;;;15.26;39.38184;963.4333;;;;
2020/01/09 14:06:40;;;;;;;3.4;1.3;;;;;;;15.17;38.39063;963.4202;;;;
2020/01/09 14:09:05;;;;;;;1.9;1.2;;;;;;;15.08;38.7959;963.4623;;;;
2020/01/09 14:11:30;;;;;;;2.7;1.2;;;;;;;15.1;39.36719;963.3848;;;;
2020/01/09 14:13:55;;;;;;;3.9;1.2;;;;;;;15.02;38.69727;963.4266;;;;
2020/01/09 14:16:20;;;;;;;2.1;1.2;;;;;;;14.87;39.33496;963.4338;;;;
2020/01/09 14:18:45;;;;;;;5.1;1.3;;;;;;;14.85;38.96582;963.4669;;;;
2020/01/09 14:21:11;;;;;;;3.1;1.2;;;;;;;14.85;38.72949;963.3627;;;;
2020/01/09 14:23:36;;;;;;;7.6;1.6;;;;;;;14.84;38.61035;963.3689;;;;
2020/01/09 14:26:01;;;;;;;4;1.5;;;;;;;14.91;38.73438;963.3447;;;;
2020/01/09 14:30:51;;;;;;;6.5;1.7;;;;;;;14.62;39.46582;963.3484;;;;
2020/01/09 14:33:16;;;;;;;4.8;1.7;;;;;;;14.55;40.10938;963.3566;;;;